Time;durP1;ratioP1;P1;durP2;ratioP2;P2;SDS_P1;SDS_P2;PMS_P1;PMS_P2;Temp;Humidity;BMP_temperature;BMP_pressure;BME280_temperature;BME280_humidity;BME280_pressure;Samples;Min_cycle;Max_cycle;Signal;HPM_P1;HPM_P2
2022/07/23 00:00:51;;;;;;;;;28.67;28.33;;;;;-146.44;100.00;58906.56;5076582;28;46577;-64
2022/07/23 00:03:17;;;;;;;;;36.33;31.67;;;;;-146.44;100.00;58906.56;5076488;28;45491;-64
2022/07/23 00:05:42;;;;;;;;;37.33;32.67;;;;;-146.44;100.00;58906.56;5076905;28;45362;-64
2022/07/23 00:08:08;;;;;;;;;34.67;31.33;;;;;-146.44;100.00;58906.56;5076671;28;45525;-64
2022/07/23 00:10:34;;;;;;;;;32.00;31.00;;;;;-146.44;100.00;58906.56;5075650;28;46138;-64
2022/07/23 00:12:59;;;;;;;;;32.33;31.33;;;;;-146.44;100.00;58906.56;5076430;28;45493;-64
2022/07/23 00:15:25;;;;;;;;;32.67;30.67;;;;;-146.44;100.00;58906.56;5076454;28;45786;-64
2022/07/23 00:17:50;;;;;;;;;31.00;30.00;;;;;-146.44;100.00;58906.56;5076837;28;45413;-64
2022/07/23 00:20:16;;;;;;;;;32.33;31.33;;;;;-146.44;100.00;58906.56;5076270;28;45508;-64
2022/07/23 00:22:52;;;;;;;;;29.67;27.67;;;;;-146.44;100.00;58906.56;5076312;28;45517;-64
2022/07/23 00:25:18;;;;;;;;;29.00;29.00;;;;;-146.44;100.00;58906.56;5076679;28;45429;-64
2022/07/23 00:27:44;;;;;;;;;30.00;29.00;;;;;-146.44;100.00;58906.56;5076361;27;45558;-64
2022/07/23 00:30:10;;;;;;;;;25.67;23.67;;;;;-146.44;100.00;58906.56;5076377;27;45881;-64
2022/07/23 00:32:50;;;;;;;;;32.67;30.67;;;;;-146.44;100.00;58906.56;5076435;28;45334;-64
2022/07/23 00:35:16;;;;;;;;;38.67;34.33;;;;;-146.44;100.00;58906.56;5076528;28;45441;-64
2022/07/23 00:37:42;;;;;;;;;38.33;33.33;;;;;-146.44;100.00;58906.56;5076513;27;45461;-64
2022/07/23 00:40:08;;;;;;;;;37.00;32.67;;;;;-146.44;100.00;58906.56;5075954;28;45519;-65
2022/07/23 00:42:33;;;;;;;;;41.33;35.67;;;;;-146.44;100.00;58906.56;5076256;28;45447;-64
2022/07/23 00:44:58;;;;;;;;;32.00;30.00;;;;;-146.44;100.00;58906.56;5076239;27;45454;-64
2022/07/23 00:47:24;;;;;;;;;39.67;33.00;;;;;-146.44;100.00;58906.56;5076151;28;45367;-64
2022/07/23 00:49:49;;;;;;;;;42.00;33.33;;;;;-146.44;100.00;58906.56;5076042;28;45390;-65
2022/07/23 00:52:15;;;;;;;;;39.00;33.00;;;;;-146.44;100.00;58906.56;5075776;28;45425;-64
2022/07/23 00:54:41;;;;;;;;;40.33;35.00;;;;;-146.44;100.00;58906.56;5076050;28;45440;-64
2022/07/23 00:57:08;;;;;;;;;41.00;35.33;;;;;-146.44;100.00;58906.56;5076026;27;45660;-64
2022/07/23 00:59:33;;;;;;;;;38.67;34.33;;;;;-146.44;100.00;58906.56;5075623;28;45381;-64
2022/07/23 01:01:59;;;;;;;;;39.67;34.00;;;;;-146.44;100.00;58906.56;5075696;27;45369;-64
2022/07/23 01:04:24;;;;;;;;;39.33;35.33;;;;;-146.44;100.00;58906.56;5076107;28;45634;-64
2022/07/23 01:06:50;;;;;;;;;45.67;37.33;;;;;-146.44;100.00;58906.56;5076090;28;45531;-64
2022/07/23 01:09:15;;;;;;;;;41.00;35.00;;;;;-146.44;100.00;58906.56;5075692;28;45436;-64
2022/07/23 01:11:41;;;;;;;;;38.33;35.00;;;;;-146.44;100.00;58906.56;5074240;28;45445;-64
2022/07/23 01:14:11;;;;;;;;;35.67;32.67;;;;;-146.44;100.00;58906.56;5075700;28;45448;-64
2022/07/23 01:16:37;;;;;;;;;43.00;36.33;;;;;-146.44;100.00;58906.56;5075595;27;45436;-64
2022/07/23 01:19:04;;;;;;;;;38.33;33.33;;;;;-146.44;100.00;58906.56;5074365;28;45480;-64
2022/07/23 01:21:30;;;;;;;;;42.67;34.67;;;;;-146.44;100.00;58906.56;5074982;28;45546;-64
2022/07/23 01:23:56;;;;;;;;;33.33;31.33;;;;;-146.44;100.00;58906.56;5075449;27;45526;-64
2022/07/23 01:26:21;;;;;;;;;41.33;34.33;;;;;-146.44;100.00;58906.56;5075763;27;45503;-64
2022/07/23 01:28:46;;;;;;;;;38.33;34.00;;;;;-146.44;100.00;58906.56;5075206;28;49724;-64
2022/07/23 01:31:12;;;;;;;;;38.00;35.00;;;;;-146.44;100.00;58906.56;5075530;28;45442;-64
2022/07/23 01:33:37;;;;;;;;;37.00;34.00;;;;;-146.44;100.00;58906.56;5075617;28;45476;-64
2022/07/23 01:36:03;;;;;;;;;43.33;37.33;;;;;-146.44;100.00;58906.56;5075468;28;45532;-64
2022/07/23 01:38:28;;;;;;;;;38.33;34.67;;;;;-146.44;100.00;58906.56;5075239;28;45484;-64
2022/07/23 01:40:54;;;;;;;;;34.33;32.00;;;;;-146.44;100.00;58906.56;5075276;28;45441;-64
2022/07/23 01:43:19;;;;;;;;;36.00;33.33;;;;;-146.44;100.00;58906.56;5075583;28;45598;-64
2022/07/23 01:45:44;;;;;;;;;33.67;30.00;;;;;-146.44;100.00;58906.56;5075139;28;45740;-64
2022/07/23 01:48:10;;;;;;;;;37.67;34.67;;;;;-146.44;100.00;58906.56;5075268;28;45480;-64
2022/07/23 01:50:35;;;;;;;;;36.67;33.00;;;;;-146.44;100.00;58906.56;5075172;28;45395;-64
2022/07/23 01:53:00;;;;;;;;;35.33;32.33;;;;;-146.44;100.00;58906.56;5075300;28;45358;-64
2022/07/23 01:55:26;;;;;;;;;36.67;33.33;;;;;-146.44;100.00;58906.56;5075773;27;45679;-64
2022/07/23 01:57:51;;;;;;;;;35.67;33.00;;;;;-146.44;100.00;58906.56;5075354;28;45336;-64
2022/07/23 02:00:16;;;;;;;;;37.33;33.33;;;;;-146.44;100.00;58906.56;5075088;28;45461;-64
2022/07/23 02:02:42;;;;;;;;;37.33;34.33;;;;;-146.44;100.00;58906.56;5075056;28;45420;-64
2022/07/23 02:05:07;;;;;;;;;41.33;35.00;;;;;-146.44;100.00;58906.56;5075089;27;45356;-64
2022/07/23 02:07:33;;;;;;;;;37.00;33.00;;;;;-146.44;100.00;58906.56;5074886;28;46289;-64
2022/07/23 02:09:58;;;;;;;;;36.33;33.00;;;;;-146.44;100.00;58906.56;5075116;28;45326;-64
2022/07/23 02:12:24;;;;;;;;;40.00;33.33;;;;;-146.44;100.00;58906.56;5075195;28;45413;-64
2022/07/23 02:14:49;;;;;;;;;38.67;35.33;;;;;-146.44;100.00;58906.56;5074858;28;45646;-64
2022/07/23 02:17:14;;;;;;;;;37.33;34.33;;;;;-146.44;100.00;58906.56;5074846;28;47149;-64
2022/07/23 02:19:40;;;;;;;;;35.33;32.67;;;;;-146.44;100.00;58906.56;5074748;28;45470;-64
2022/07/23 02:22:05;;;;;;;;;34.67;29.67;;;;;-146.44;100.00;58906.56;5074832;28;45481;-64
2022/07/23 02:24:31;;;;;;;;;33.67;30.33;;;;;-146.44;100.00;58906.56;5074908;28;45461;-64
2022/07/23 02:26:56;;;;;;;;;28.00;28.00;;;;;-146.44;100.00;58906.56;5074709;28;46297;-64
2022/07/23 02:29:21;;;;;;;;;29.00;29.00;;;;;-146.44;100.00;58906.56;5074731;28;45441;-64
2022/07/23 02:31:46;;;;;;;;;33.33;30.00;;;;;-146.44;100.00;58906.56;5074774;28;45372;-64
2022/07/23 02:34:12;;;;;;;;;31.33;30.00;;;;;-146.44;100.00;58906.56;5077846;28;45428;-64
2022/07/23 02:36:39;;;;;;;;;28.33;28.33;;;;;-146.44;100.00;58906.56;5078151;28;45512;-64
2022/07/23 02:39:04;;;;;;;;;28.33;27.67;;;;;-146.44;100.00;58906.56;5093873;27;45517;-64
2022/07/23 02:41:30;;;;;;;;;36.67;30.33;;;;;-146.44;100.00;58906.56;5078113;27;45514;-64
2022/07/23 02:43:55;;;;;;;;;33.33;32.00;;;;;-146.44;100.00;58906.56;5078156;28;45386;-65
2022/07/23 02:46:20;;;;;;;;;30.67;27.67;;;;;-146.44;100.00;58906.56;5077842;28;45998;-65
2022/07/23 02:48:45;;;;;;;;;31.67;29.67;;;;;-146.44;100.00;58906.56;5078046;28;45530;-64
2022/07/23 02:51:11;;;;;;;;;35.00;30.33;;;;;-146.44;100.00;58906.56;5078188;28;45496;-64
2022/07/23 02:53:36;;;;;;;;;27.33;26.67;;;;;-146.44;100.00;58906.56;5093646;27;45355;-64
2022/07/23 02:56:02;;;;;;;;;28.33;28.33;;;;;-146.44;100.00;58906.56;5077886;28;46272;-64
2022/07/23 02:58:27;;;;;;;;;25.67;25.67;;;;;-146.44;100.00;58906.56;5077891;28;45441;-64
2022/07/23 03:00:53;;;;;;;;;27.00;27.00;;;;;-146.44;100.00;58906.56;5077988;28;45427;-64
2022/07/23 03:03:18;;;;;;;;;30.33;26.67;;;;;-146.44;100.00;58906.56;5077921;28;45636;-64
2022/07/23 03:05:44;;;;;;;;;26.33;25.33;;;;;-146.44;100.00;58906.56;5077765;28;46006;-64
2022/07/23 03:08:09;;;;;;;;;29.00;26.33;;;;;-146.44;100.00;58906.56;5093424;27;45390;-65
2022/07/23 03:10:34;;;;;;;;;28.33;28.33;;;;;-146.44;100.00;58906.56;5077916;28;45507;-64
2022/07/23 03:13:00;;;;;;;;;27.33;25.00;;;;;-146.44;100.00;58906.56;5078054;28;45533;-65
2022/07/23 03:15:25;;;;;;;;;30.33;29.67;;;;;-146.44;100.00;58906.56;5077313;28;46218;-65
2022/07/23 03:17:50;;;;;;;;;28.00;26.67;;;;;-146.44;100.00;58906.56;5077450;28;45526;-65
2022/07/23 03:20:16;;;;;;;;;33.33;28.67;;;;;-146.44;100.00;58906.56;5077582;28;45521;-64
2022/07/23 03:22:41;;;;;;;;;30.00;30.00;;;;;-146.44;100.00;58906.56;5077433;28;45605;-64
2022/07/23 03:25:07;;;;;;;;;31.00;28.67;;;;;-146.44;100.00;58906.56;5077380;28;45435;-65
2022/07/23 03:27:33;;;;;;;;;32.00;31.00;;;;;-146.44;100.00;58906.56;5077351;28;45508;-64
2022/07/23 03:30:00;;;;;;;;;28.00;27.33;;;;;-146.44;100.00;58906.56;5077612;27;45504;-64
2022/07/23 03:32:25;;;;;;;;;30.00;29.00;;;;;-146.44;100.00;58906.56;5077609;28;45605;-64
2022/07/23 03:34:51;;;;;;;;;35.00;32.33;;;;;-146.44;100.00;58906.56;5076998;27;46530;-64
2022/07/23 03:37:18;;;;;;;;;32.67;30.67;;;;;-146.44;100.00;58906.56;5077285;28;45856;-64
2022/07/23 03:39:43;;;;;;;;;31.33;29.67;;;;;-146.44;100.00;58906.56;5077359;28;45396;-64
2022/07/23 03:42:09;;;;;;;;;34.33;31.33;;;;;-146.44;100.00;58906.56;5077287;27;45444;-64
2022/07/23 03:44:36;;;;;;;;;34.67;32.33;;;;;-146.44;100.00;58906.56;5077193;28;45783;-64
2022/07/23 03:47:02;;;;;;;;;31.33;29.67;;;;;-146.44;100.00;58906.56;5077088;28;45504;-64
2022/07/23 03:49:28;;;;;;;;;35.33;32.67;;;;;-146.44;100.00;58906.56;5077120;27;45519;-64
2022/07/23 03:51:53;;;;;;;;;38.33;33.33;;;;;-146.44;100.00;58906.56;5077329;27;45436;-64
2022/07/23 03:54:18;;;;;;;;;37.00;33.00;;;;;-146.44;100.00;58906.56;5077126;28;45519;-65
2022/07/23 03:56:44;;;;;;;;;38.33;34.33;;;;;-146.44;100.00;58906.56;5076955;28;45600;-64
2022/07/23 03:59:10;;;;;;;;;33.33;32.00;;;;;-146.44;100.00;58906.56;5077120;28;45547;-64
2022/07/23 04:01:35;;;;;;;;;34.33;32.00;;;;;-146.44;100.00;58906.56;5076790;28;45389;-65
2022/07/23 04:04:01;;;;;;;;;37.33;32.67;;;;;-146.44;100.00;58906.56;5076546;28;46196;-65
2022/07/23 04:06:27;;;;;;;;;35.33;32.67;;;;;-146.44;100.00;58906.56;5076931;28;45437;-65
2022/07/23 04:08:52;;;;;;;;;33.00;30.33;;;;;-146.44;100.00;58906.56;5076874;27;45504;-64
2022/07/23 04:11:18;;;;;;;;;39.33;33.67;;;;;-146.44;100.00;58906.56;5076873;28;45646;-64
2022/07/23 04:13:43;;;;;;;;;31.33;30.00;;;;;-146.44;100.00;58906.56;5076642;27;46132;-64
2022/07/23 04:16:08;;;;;;;;;34.33;32.00;;;;;-146.44;100.00;58906.56;5076417;28;45403;-64
2022/07/23 04:18:34;;;;;;;;;33.67;29.00;;;;;-146.44;100.00;58906.56;5076876;28;45770;-64
2022/07/23 04:20:59;;;;;;;;;33.00;31.00;;;;;-146.44;100.00;58906.56;5076559;28;45437;-64
2022/07/23 04:23:24;;;;;;;;;34.67;31.00;;;;;-146.44;100.00;58906.56;5076539;28;45473;-65
2022/07/23 04:25:50;;;;;;;;;34.67;30.33;;;;;-146.44;100.00;58906.56;5076533;28;45634;-65
2022/07/23 04:28:15;;;;;;;;;28.67;26.67;;;;;-146.44;100.00;58906.56;5076575;28;45393;-64
2022/07/23 04:30:41;;;;;;;;;29.67;26.67;;;;;-146.44;100.00;58906.56;5076638;28;45575;-64
2022/07/23 04:33:06;;;;;;;;;31.00;29.67;;;;;-146.44;100.00;58906.56;5076454;28;45429;-64
2022/07/23 04:35:35;;;;;;;;;28.33;28.00;;;;;-146.44;100.00;58906.56;5074973;28;45445;-65
2022/07/23 04:38:01;;;;;;;;;26.67;25.67;;;;;-146.44;100.00;58906.56;5076214;28;45409;-64
2022/07/23 04:40:27;;;;;;;;;25.00;23.33;;;;;-146.44;100.00;58906.56;5076115;27;45499;-64
2022/07/23 04:42:53;;;;;;;;;26.33;26.33;;;;;-146.44;100.00;58906.56;5076008;28;45428;-64
2022/07/23 04:45:18;;;;;;;;;29.00;28.00;;;;;-146.44;100.00;58906.56;5076132;28;45433;-64
2022/07/23 04:47:43;;;;;;;;;28.00;26.33;;;;;-146.44;100.00;58906.56;5076372;28;45354;-64
2022/07/23 04:50:09;;;;;;;;;31.00;29.00;;;;;-146.44;100.00;58906.56;5076442;28;45372;-64
2022/07/23 04:52:34;;;;;;;;;27.00;24.67;;;;;-146.44;100.00;58906.56;5075952;28;46155;-64
2022/07/23 04:55:00;;;;;;;;;29.00;29.00;;;;;-146.44;100.00;58906.56;5075331;28;45549;-65
2022/07/23 04:57:25;;;;;;;;;29.33;28.00;;;;;-146.44;100.00;58906.56;5075961;28;45428;-65
2022/07/23 04:59:51;;;;;;;;;26.00;24.67;;;;;-146.44;100.00;58906.56;5076093;28;45582;-65
2022/07/23 05:02:16;;;;;;;;;25.67;24.67;;;;;-146.44;100.00;58906.56;5075877;28;45523;-64
2022/07/23 05:04:41;;;;;;;;;28.00;26.67;;;;;-146.44;100.00;58906.56;5075831;28;45393;-64
2022/07/23 05:07:07;;;;;;;;;25.00;25.00;;;;;-146.44;100.00;58906.56;5076029;28;45389;-65
2022/07/23 05:09:32;;;;;;;;;28.33;27.33;;;;;-146.44;100.00;58906.56;5075942;28;45404;-65
2022/07/23 05:11:58;;;;;;;;;28.67;26.33;;;;;-146.44;100.00;58906.56;5075626;27;45439;-64
2022/07/23 05:14:23;;;;;;;;;26.33;26.33;;;;;-146.44;100.00;58906.56;5075598;28;45442;-65
2022/07/23 05:16:48;;;;;;;;;25.33;24.33;;;;;-146.44;100.00;58906.56;5075686;28;45436;-65
2022/07/23 05:19:13;;;;;;;;;27.67;27.67;;;;;-146.44;100.00;58906.56;5075762;28;45429;-64
2022/07/23 05:21:39;;;;;;;;;28.00;26.67;;;;;-146.44;100.00;58906.56;5075545;28;45489;-64
2022/07/23 05:24:05;;;;;;;;;27.33;24.00;;;;;-146.44;100.00;58906.56;5075502;28;45482;-64
2022/07/23 05:26:30;;;;;;;;;21.33;21.33;;;;;-146.44;100.00;58906.56;5075615;28;45515;-64
2022/07/23 05:28:56;;;;;;;;;25.33;20.33;;;;;-146.44;100.00;58906.56;5075340;27;45436;-64
2022/07/23 05:31:21;;;;;;;;;23.67;22.33;;;;;-146.44;100.00;58906.56;5091038;27;46210;-64
2022/07/23 05:33:46;;;;;;;;;25.00;23.00;;;;;-146.44;100.00;58906.56;5075497;28;45429;-64
2022/07/23 05:36:12;;;;;;;;;26.00;21.67;;;;;-146.44;100.00;58906.56;5075299;27;45436;-64
2022/07/23 05:38:37;;;;;;;;;21.67;20.67;;;;;-146.44;100.00;58906.56;5075318;28;45514;-64
2022/07/23 05:41:03;;;;;;;;;25.00;23.00;;;;;-146.44;100.00;58906.56;5075114;28;46137;-64
2022/07/23 05:43:28;;;;;;;;;26.67;25.67;;;;;-146.44;100.00;58906.56;5075369;27;45498;-64
2022/07/23 05:45:55;;;;;;;;;28.33;26.00;;;;;-146.44;100.00;58906.56;5075431;28;45366;-64
2022/07/23 05:48:20;;;;;;;;;33.33;30.00;;;;;-146.44;100.00;58906.56;5091373;27;45624;-64
2022/07/23 05:50:47;;;;;;;;;29.67;27.33;;;;;-146.44;100.00;58906.56;5075221;27;46129;-64
2022/07/23 05:53:12;;;;;;;;;32.33;30.33;;;;;-146.44;100.00;58906.56;5074020;28;45378;-65
2022/07/23 05:55:38;;;;;;;;;30.33;29.33;;;;;-146.44;100.00;58906.56;5075247;28;45434;-65
2022/07/23 05:58:03;;;;;;;;;28.67;27.33;;;;;-146.44;100.00;58906.56;5075241;28;45385;-64
2022/07/23 06:00:29;;;;;;;;;34.00;30.67;;;;;-146.44;100.00;58906.56;5075067;28;46264;-64
2022/07/23 06:02:54;;;;;;;;;35.00;33.00;;;;;-146.44;100.00;58906.56;5075102;27;45461;-64
2022/07/23 06:05:20;;;;;;;;;38.67;33.33;;;;;-146.44;100.00;58906.56;5075200;28;45355;-64
2022/07/23 06:07:45;;;;;;;;;38.33;33.67;;;;;-146.44;100.00;58906.56;5077892;28;45612;-64
2022/07/23 06:10:10;;;;;;;;;42.00;35.67;;;;;-146.44;100.00;58906.56;5078464;28;46097;-64
2022/07/23 06:12:36;;;;;;;;;32.33;31.00;;;;;-146.44;100.00;58906.56;5078657;28;45367;-65
2022/07/23 06:15:03;;;;;;;;;37.33;33.33;;;;;-146.44;100.00;58906.56;5078419;28;45449;-64
2022/07/23 06:17:29;;;;;;;;;38.33;34.33;;;;;-146.44;100.00;58906.56;5078439;28;45394;-64
2022/07/23 06:19:55;;;;;;;;;38.33;33.00;;;;;-146.44;100.00;58906.56;5078382;27;45370;-64
2022/07/23 06:22:21;;;;;;;;;37.00;34.00;;;;;-146.44;100.00;58906.56;5078436;28;45521;-65
2022/07/23 06:24:47;;;;;;;;;44.00;34.00;;;;;-146.44;100.00;58906.56;5078452;28;45416;-65
2022/07/23 06:27:12;;;;;;;;;36.67;34.33;;;;;-146.44;100.00;58906.56;5078547;27;45525;-65
2022/07/23 06:29:40;;;;;;;;;44.00;36.67;;;;;-146.44;100.00;58906.56;5078300;28;48899;-65
2022/07/23 06:32:05;;;;;;;;;42.33;36.00;;;;;-146.44;100.00;58906.56;5078252;28;45525;-65
2022/07/23 06:34:31;;;;;;;;;36.33;32.67;;;;;-146.44;100.00;58906.56;5078552;27;45409;-65
2022/07/23 06:36:56;;;;;;;;;38.67;33.67;;;;;-146.44;100.00;58906.56;5078325;28;45483;-65
2022/07/23 06:39:21;;;;;;;;;39.67;35.00;;;;;-146.44;100.00;58906.56;5078185;28;45425;-65
2022/07/23 06:41:47;;;;;;;;;42.67;36.33;;;;;-146.44;100.00;58906.56;5076881;28;45446;-65
2022/07/23 06:44:12;;;;;;;;;38.67;32.33;;;;;-146.44;100.00;58906.56;5078257;28;45472;-65
2022/07/23 06:46:37;;;;;;;;;43.33;35.67;;;;;-146.44;100.00;58906.56;5078210;28;45425;-65
2022/07/23 06:49:04;;;;;;;;;43.33;37.00;;;;;-146.44;100.00;58906.56;5078269;27;45356;-65
2022/07/23 06:51:29;;;;;;;;;43.67;36.67;;;;;-146.44;100.00;58906.56;5078131;28;45359;-65
2022/07/23 06:53:54;;;;;;;;;47.33;40.33;;;;;-146.44;100.00;58906.56;5077955;28;45429;-65
2022/07/23 06:56:20;;;;;;;;;48.67;39.33;;;;;-146.44;100.00;58906.56;5078025;28;45568;-64
2022/07/23 06:58:45;;;;;;;;;48.67;37.67;;;;;-146.44;100.00;58906.56;5077774;28;46068;-64
2022/07/23 07:01:11;;;;;;;;;45.33;38.33;;;;;-146.44;100.00;58906.56;5077731;28;45445;-64
2022/07/23 07:03:36;;;;;;;;;45.67;38.00;;;;;-146.44;100.00;58906.56;5077806;28;45407;-64
2022/07/23 07:06:02;;;;;;;;;47.33;38.33;;;;;-146.44;100.00;58906.56;5077688;28;45472;-64
2022/07/23 07:08:27;;;;;;;;;50.33;42.00;;;;;-146.44;100.00;58906.56;5077620;28;45375;-64
2022/07/23 07:10:53;;;;;;;;;46.33;39.33;;;;;-146.44;100.00;58906.56;5077622;28;45405;-64
2022/07/23 07:13:18;;;;;;;;;46.33;37.67;;;;;-146.44;100.00;58906.56;5077719;28;45509;-64
2022/07/23 07:15:44;;;;;;;;;52.67;41.00;;;;;-146.44;100.00;58906.56;5076289;28;45443;-65
2022/07/23 07:18:09;;;;;;;;;49.67;39.67;;;;;-146.44;100.00;58906.56;5076789;28;45500;-65
2022/07/23 07:20:34;;;;;;;;;49.33;40.00;;;;;-146.44;100.00;58906.56;5077422;28;45366;-65
2022/07/23 07:23:00;;;;;;;;;45.00;37.67;;;;;-146.44;100.00;58906.56;5077786;28;45394;-65
2022/07/23 07:25:25;;;;;;;;;44.67;38.67;;;;;-146.44;100.00;58906.56;5076298;28;45363;-65
2022/07/23 07:27:50;;;;;;;;;51.33;43.67;;;;;-146.44;100.00;58906.56;5077419;28;46398;-65
2022/07/23 07:30:16;;;;;;;;;46.33;39.33;;;;;-146.44;100.00;58906.56;5077356;28;45386;-65
2022/07/23 07:32:42;;;;;;;;;48.67;40.00;;;;;-146.44;100.00;58906.56;5077511;27;45407;-65
2022/07/23 07:35:08;;;;;;;;;50.67;40.67;;;;;-146.44;100.00;58906.56;5077425;28;45630;-64
2022/07/23 07:37:34;;;;;;;;;48.33;40.67;;;;;-146.44;100.00;58906.56;5076951;28;46160;-64
2022/07/23 07:40:00;;;;;;;;;47.67;40.67;;;;;-146.44;100.00;58906.56;5076876;28;45429;-64
2022/07/23 07:42:26;;;;;;;;;47.00;39.67;;;;;-146.44;100.00;58906.56;5077119;27;45491;-65
2022/07/23 07:44:51;;;;;;;;;46.33;38.67;;;;;-146.44;100.00;58906.56;5077196;28;45603;-65
2022/07/23 07:47:16;;;;;;;;;46.33;39.33;;;;;-146.44;100.00;58906.56;5076926;28;45430;-65
2022/07/23 07:49:42;;;;;;;;;46.67;39.00;;;;;-146.44;100.00;58906.56;5077162;28;45453;-65
2022/07/23 07:52:08;;;;;;;;;46.33;38.67;;;;;-146.44;100.00;58906.56;5077023;28;45456;-65
2022/07/23 07:54:33;;;;;;;;;49.00;41.33;;;;;-146.44;100.00;58906.56;5077082;27;45475;-65
2022/07/23 07:56:59;;;;;;;;;48.67;40.33;;;;;-146.44;100.00;58906.56;5077092;28;46111;-65
2022/07/23 07:59:25;;;;;;;;;49.33;40.67;;;;;-146.44;100.00;58906.56;5076796;28;45647;-65
2022/07/23 08:01:50;;;;;;;;;50.33;41.33;;;;;-146.44;100.00;58906.56;5077104;28;45594;-65
2022/07/23 08:04:16;;;;;;;;;48.00;39.33;;;;;-146.44;100.00;58906.56;5076964;27;45417;-65
2022/07/23 08:06:41;;;;;;;;;44.33;35.33;;;;;-146.44;100.00;58906.56;5076705;28;45410;-65
2022/07/23 08:09:06;;;;;;;;;46.00;38.67;;;;;-146.44;100.00;58906.56;5076874;28;45426;-65
2022/07/23 08:11:31;;;;;;;;;43.33;37.67;;;;;-146.44;100.00;58906.56;5076717;28;45500;-65
2022/07/23 08:13:57;;;;;;;;;50.33;41.00;;;;;-146.44;100.00;58906.56;5076875;28;45366;-65
2022/07/23 08:16:22;;;;;;;;;50.33;41.00;;;;;-146.44;100.00;58906.56;5076606;28;46408;-65
2022/07/23 08:18:47;;;;;;;;;43.33;35.67;;;;;-146.44;100.00;58906.56;5076530;28;45485;-65
2022/07/23 08:21:13;;;;;;;;;42.67;36.67;;;;;-146.44;100.00;58906.56;5076644;28;45402;-65
2022/07/23 08:23:38;;;;;;;;;46.33;38.00;;;;;-146.44;100.00;58906.56;5076602;28;45417;-65
2022/07/23 08:26:04;;;;;;;;;44.00;36.00;;;;;-146.44;100.00;58906.56;5076413;28;46163;-65
2022/07/23 08:28:32;;;;;;;;;44.67;37.67;;;;;-146.44;100.00;58906.56;5076683;28;45382;-65
2022/07/23 08:30:58;;;;;;;;;44.33;38.00;;;;;-146.44;100.00;58906.56;5075545;28;45376;-65
2022/07/23 08:33:24;;;;;;;;;45.00;37.67;;;;;-146.44;100.00;58906.56;5076392;27;45452;-64
2022/07/23 08:35:52;;;;;;;;;49.00;40.33;;;;;-146.44;100.00;58906.56;5076219;28;46485;-64
2022/07/23 08:38:21;;;;;;;;;45.00;37.33;;;;;-146.44;100.00;58906.56;5076506;28;45393;-65
2022/07/23 08:40:52;;;;;;;;;45.67;39.67;;;;;-146.44;100.00;58906.56;5076173;27;45433;-65
2022/07/23 08:43:23;;;;;;;;;46.00;38.33;;;;;-146.44;100.00;58906.56;5076336;27;45499;-65
2022/07/23 08:45:51;;;;;;;;;50.00;41.00;;;;;-146.44;100.00;58906.56;5076136;27;46285;-65
2022/07/23 08:48:22;;;;;;;;;44.00;36.67;;;;;-146.44;100.00;58906.56;5076199;28;45542;-65
2022/07/23 08:50:50;;;;;;;;;43.33;36.33;;;;;-146.44;100.00;58906.56;5074916;28;45420;-65
2022/07/23 08:53:17;;;;;;;;;43.33;36.67;;;;;-146.44;100.00;58906.56;5075992;27;45486;-65
2022/07/23 08:55:55;;;;;;;;;41.33;34.67;;;;;-146.44;100.00;58906.56;5076119;27;45472;-65
2022/07/23 08:58:21;;;;;;;;;38.67;35.00;;;;;-146.44;100.00;58906.56;5076261;27;45425;-65
2022/07/23 09:00:47;;;;;;;;;42.67;35.67;;;;;-146.44;100.00;58906.56;5075997;27;45480;-65
2022/07/23 09:03:21;;;;;;;;;41.67;34.33;;;;;-146.44;100.00;58906.56;5075900;27;45483;-65
2022/07/23 09:05:48;;;;;;;;;47.67;39.00;;;;;-146.44;100.00;58906.56;5075859;27;46381;-65
2022/07/23 09:08:16;;;;;;;;;41.67;35.67;;;;;-146.44;100.00;58906.56;5075862;27;45448;-65
2022/07/23 09:10:50;;;;;;;;;46.00;38.67;;;;;-146.44;100.00;58906.56;5075906;28;45370;-65
2022/07/23 09:13:39;;;;;;;;;40.33;35.67;;;;;-146.44;100.00;58906.56;5075772;27;45351;-65
2022/07/23 09:16:14;;;;;;;;;37.67;33.33;;;;;-146.44;100.00;58906.56;5075354;27;46304;-65
2022/07/23 09:18:49;;;;;;;;;43.67;38.67;;;;;-146.44;100.00;58906.56;5075710;27;45376;-65
2022/07/23 09:21:17;;;;;;;;;46.00;36.33;;;;;-146.44;100.00;58906.56;5091375;27;45433;-65
2022/07/23 09:23:44;;;;;;;;;44.00;36.33;;;;;-146.44;100.00;58906.56;5075784;28;45437;-65
2022/07/23 09:26:32;;;;;;;;;41.33;35.67;;;;;-146.44;100.00;58906.56;5075718;27;46254;-65
2022/07/23 09:29:06;;;;;;;;;39.00;32.33;;;;;-146.44;100.00;58906.56;5075755;27;45470;-65
2022/07/23 09:31:45;;;;;;;;;45.67;37.33;;;;;-146.44;100.00;58906.56;5075536;27;45375;-65
2022/07/23 09:34:14;;;;;;;;;41.67;35.67;;;;;-146.44;100.00;58906.56;5075829;27;45366;-65
2022/07/23 09:36:40;;;;;;;;;38.33;34.67;;;;;-146.44;100.00;58906.56;5075465;27;45572;-65
2022/07/23 09:39:07;;;;;;;;;39.67;34.00;;;;;-146.44;100.00;58906.56;5075535;27;45460;-65
2022/07/23 09:41:41;;;;;;;;;36.00;32.67;;;;;-146.44;100.00;58906.56;5076111;27;45360;-65
2022/07/23 09:44:09;;;;;;;;;40.67;33.00;;;;;-146.44;100.00;58906.56;5077977;28;45417;-65
2022/07/23 09:46:35;;;;;;;;;36.33;33.00;;;;;-146.44;100.00;58906.56;5078940;27;46089;-65
2022/07/23 09:49:13;;;;;;;;;42.00;35.33;;;;;-146.44;100.00;58906.56;5079001;27;45382;-65
2022/07/23 09:52:04;;;;;;;;;40.00;34.67;;;;;-146.44;100.00;58906.56;5077919;28;45449;-64
2022/07/23 09:54:33;;;;;;;;;45.33;36.33;;;;;-146.44;100.00;58906.56;5078683;27;45381;-65
2022/07/23 09:57:01;;;;;;;;;38.67;33.67;;;;;-146.44;100.00;58906.56;5078680;27;46358;-65
2022/07/23 09:59:30;;;;;;;;;42.00;36.00;;;;;-146.44;100.00;58906.56;5078813;28;45460;-65
2022/07/23 10:01:59;;;;;;;;;35.67;33.33;;;;;-146.44;100.00;58906.56;5078980;27;45453;-65
2022/07/23 10:04:26;;;;;;;;;38.67;33.00;;;;;-146.44;100.00;58906.56;5079002;28;45671;-65
2022/07/23 10:06:57;;;;;;;;;42.00;35.33;;;;;-146.44;100.00;58906.56;5078475;27;45458;-65
2022/07/23 10:09:29;;;;;;;;;38.67;31.33;;;;;-146.44;100.00;58906.56;5078635;27;45567;-65
2022/07/23 10:12:21;;;;;;;;;40.00;35.00;;;;;-146.44;100.00;58906.56;5078783;27;45382;-65
2022/07/23 10:14:43;;;;;;;;;34.33;32.33;;;;;-146.44;100.00;58906.56;5078171;27;45456;-65
2022/07/23 10:17:08;;;;;;;;;41.33;36.67;;;;;-146.44;100.00;58906.56;5078675;28;46127;-65
2022/07/23 10:19:34;;;;;;;;;40.67;35.33;;;;;-146.44;100.00;58906.56;5078483;27;45602;-65
2022/07/23 10:22:02;;;;;;;;;42.00;35.67;;;;;-146.44;100.00;58906.56;5078605;28;45480;-65
2022/07/23 10:25:07;;;;;;;;;40.00;34.67;;;;;-146.44;100.00;58906.56;5078656;28;45604;-65
2022/07/23 10:27:43;;;;;;;;;42.67;35.00;;;;;-146.44;100.00;58906.56;5078182;28;45495;-65
2022/07/23 10:30:16;;;;;;;;;35.33;32.33;;;;;-146.44;100.00;58906.56;5078230;28;45403;-65
2022/07/23 10:33:16;;;;;;;;;37.67;32.00;;;;;-146.44;100.00;58906.56;5078387;27;45358;-65
2022/07/23 10:36:00;;;;;;;;;35.33;32.33;;;;;-146.44;100.00;58906.56;5078367;28;45461;-65
2022/07/23 10:38:33;;;;;;;;;36.33;33.67;;;;;-146.44;100.00;58906.56;5078113;27;46213;-65
2022/07/23 10:41:04;;;;;;;;;32.67;30.33;;;;;-146.44;100.00;58906.56;5077883;27;45437;-65
2022/07/23 10:43:31;;;;;;;;;40.33;34.67;;;;;-146.44;100.00;58906.56;5078245;27;45506;-65
2022/07/23 10:49:28;;;;;;;;;36.00;33.00;;;;;-146.44;100.00;58906.56;5057969;27;45639;-65
2022/07/23 10:52:15;;;;;;;;;32.67;31.00;;;;;-146.44;100.00;58906.56;5077860;28;45610;-65
2022/07/23 10:54:46;;;;;;;;;37.33;32.67;;;;;-146.44;100.00;58906.56;5077084;27;45452;-65
2022/07/23 10:57:13;;;;;;;;;30.00;29.67;;;;;-146.44;100.00;58906.56;5078089;27;45643;-65